Time;durP1;ratioP1;P1;durP2;ratioP2;P2;SDS_P1;SDS_P2;PMS_P1;PMS_P2;Temp;Humidity;BMP_temperature;BMP_pressure;BME280_temperature;BME280_humidity;BME280_pressure;Samples;Min_cycle;Max_cycle;Signal;HPM_P1;HPM_P2
2024/02/22 00:01:36;;;;;;;52.65;30.55;;;8.80;85.90;;;;;;5115919;28;20059;-70
2024/02/22 00:04:04;;;;;;;66.25;34.85;;;9.10;85.90;;;;;;5118754;28;20506;-70
2024/02/22 00:06:32;;;;;;;139.40;70.70;;;9.30;84.00;;;;;;5116857;28;20040;-73
2024/02/22 00:09:00;;;;;;;18.92;15.25;;;9.40;83.80;;;;;;5115606;28;20043;-71
2024/02/22 00:11:28;;;;;;;11.82;9.25;;;9.30;82.70;;;;;;5114857;28;20036;-72
2024/02/22 00:13:56;;;;;;;8.48;7.50;;;9.00;83.10;;;;;;5114392;28;20098;-70
2024/02/22 00:16:23;;;;;;;8.13;6.80;;;8.90;83.70;;;;;;5117262;28;20050;-73
2024/02/22 00:18:50;;;;;;;9.48;7.28;;;8.80;84.10;;;;;;5121802;28;20043;-71
2024/02/22 00:21:18;;;;;;;9.43;7.25;;;8.70;84.40;;;;;;5114761;28;20047;-72
2024/02/22 00:23:45;;;;;;;9.30;7.55;;;8.60;84.90;;;;;;5132646;27;20032;-72
2024/02/22 00:26:13;;;;;;;10.27;7.70;;;8.20;86.10;;;;;;5118770;27;20043;-70
2024/02/22 00:28:40;;;;;;;10.27;7.60;;;8.00;87.20;;;;;;5115049;28;20038;-72
2024/02/22 00:31:08;;;;;;;9.82;7.65;;;8.00;87.70;;;;;;5117026;27;20478;-69
2024/02/22 00:33:35;;;;;;;10.35;8.10;;;8.10;87.40;;;;;;5117171;28;20082;-73
2024/02/22 00:36:03;;;;;;;9.73;7.93;;;8.00;87.80;;;;;;5113480;28;20194;-71
2024/02/22 00:38:30;;;;;;;10.05;8.10;;;8.20;87.40;;;;;;5118561;28;20035;-71
2024/02/22 00:40:58;;;;;;;11.13;8.18;;;8.30;86.70;;;;;;5116975;28;20077;-71
2024/02/22 00:43:25;;;;;;;9.95;8.32;;;8.30;86.60;;;;;;5114763;28;20039;-71
2024/02/22 00:45:52;;;;;;;11.00;8.50;;;8.20;86.70;;;;;;5113893;28;20031;-71
2024/02/22 00:48:37;;;;;;;11.43;8.23;;;8.20;86.80;;;;;;5116468;28;20047;-70
2024/02/22 00:51:04;;;;;;;9.60;8.32;;;8.00;87.20;;;;;;5118009;28;20055;-70
2024/02/22 00:53:32;;;;;;;10.88;8.35;;;8.00;88.00;;;;;;5118418;27;20395;-70
2024/02/22 00:55:59;;;;;;;9.73;7.90;;;8.00;88.00;;;;;;5116443;27;20032;-70
2024/02/22 00:58:27;;;;;;;9.65;8.35;;;8.00;87.80;;;;;;5117278;27;20494;-70
2024/02/22 01:00:54;;;;;;;9.07;7.90;;;8.10;87.80;;;;;;5113563;27;20044;-72
2024/02/22 01:03:22;;;;;;;9.20;7.50;;;8.10;87.50;;;;;;5101184;28;20481;-70
2024/02/22 01:05:49;;;;;;;10.13;8.00;;;8.10;87.40;;;;;;5104482;28;20043;-71
2024/02/22 01:08:23;;;;;;;10.02;7.78;;;8.20;87.40;;;;;;5097525;28;20082;-74
2024/02/22 01:10:50;;;;;;;12.07;8.68;;;8.10;87.20;;;;;;5101521;28;20061;-71
2024/02/22 01:13:17;;;;;;;9.38;8.07;;;8.10;87.20;;;;;;5100077;28;20036;-74
2024/02/22 01:15:45;;;;;;;10.95;8.15;;;8.00;87.50;;;;;;5101717;28;20063;-70
2024/02/22 01:18:12;;;;;;;9.05;8.13;;;8.00;87.70;;;;;;5102112;28;20106;-70
2024/02/22 01:20:39;;;;;;;11.35;7.80;;;8.10;87.50;;;;;;5103084;28;20048;-72
2024/02/22 01:23:07;;;;;;;11.43;8.90;;;7.90;88.00;;;;;;5101633;28;20044;-74
2024/02/22 01:25:34;;;;;;;12.20;8.93;;;7.80;88.00;;;;;;5103546;28;20375;-72
2024/02/22 01:28:02;;;;;;;12.02;8.32;;;7.60;88.90;;;;;;5102755;28;20482;-71
2024/02/22 01:30:29;;;;;;;10.23;8.55;;;7.50;89.50;;;;;;5102092;28;20044;-72
2024/02/22 01:32:56;;;;;;;11.77;8.95;;;7.50;90.10;;;;;;5099772;28;20043;-73
2024/02/22 01:35:23;;;;;;;13.10;8.75;;;7.30;90.20;;;;;;5101872;28;20047;-72
2024/02/22 01:37:51;;;;;;;10.30;8.85;;;7.40;90.10;;;;;;5102506;28;20028;-71
2024/02/22 01:40:18;;;;;;;11.80;8.88;;;7.30;90.10;;;;;;5104032;28;20044;-73
2024/02/22 01:42:45;;;;;;;11.15;8.93;;;7.20;90.70;;;;;;5093773;28;20386;-70
2024/02/22 01:45:12;;;;;;;10.20;8.43;;;7.20;90.20;;;;;;5102783;28;20048;-72
2024/02/22 01:47:40;;;;;;;11.43;8.73;;;7.20;90.00;;;;;;5100957;28;20063;-72
2024/02/22 01:50:09;;;;;;;14.52;9.45;;;7.00;90.20;;;;;;5099843;28;20044;-73
2024/02/22 01:52:37;;;;;;;11.93;9.60;;;7.00;90.30;;;;;;5100932;28;20051;-71
2024/02/22 01:55:08;;;;;;;17.48;8.88;;;7.00;90.50;;;;;;5100902;28;20036;-72
2024/02/22 01:57:35;;;;;;;;;;;7.20;90.10;;;;;;5102007;28;20040;-72
2024/02/22 02:00:11;;;;;;;11.32;8.70;;;7.30;89.80;;;;;;5101634;28;19955;-71
2024/02/22 02:02:39;;;;;;;11.60;9.10;;;7.30;89.30;;;;;;5099337;28;20032;-71
2024/02/22 02:05:06;;;;;;;11.75;9.20;;;7.20;89.40;;;;;;5101841;28;20048;-74
2024/02/22 02:07:37;;;;;;;13.73;9.95;;;7.10;89.60;;;;;;5103135;28;20036;-72
2024/02/22 02:10:05;;;;;;;;;;;6.90;90.20;;;;;;5100830;28;20036;-70
2024/02/22 02:12:32;;;;;;;13.10;9.60;;;6.80;90.10;;;;;;5097670;28;19930;-71
2024/02/22 02:14:59;;;;;;;12.35;10.00;;;6.80;90.40;;;;;;5101337;28;20064;-72
2024/02/22 02:17:27;;;;;;;14.00;10.35;;;6.80;90.20;;;;;;5101895;28;20059;-70
2024/02/22 02:19:56;;;;;;;12.38;9.50;;;6.70;90.20;;;;;;5102988;28;20090;-72
2024/02/22 02:22:52;;;;;;;15.70;10.10;;;6.50;90.40;;;;;;5096517;28;20383;-69
2024/02/22 02:25:20;;;;;;;17.52;10.07;;;6.60;90.50;;;;;;5099655;28;20482;-70
2024/02/22 02:27:48;;;;;;;14.27;10.63;;;6.70;90.30;;;;;;5095451;28;20040;-71
2024/02/22 02:30:15;;;;;;;14.38;10.65;;;6.60;90.20;;;;;;5097662;28;20035;-71
2024/02/22 02:32:42;;;;;;;13.88;10.35;;;6.70;90.00;;;;;;5101841;28;20037;-71
2024/02/22 02:35:10;;;;;;;11.38;9.35;;;6.50;90.00;;;;;;5097854;28;20048;-72
2024/02/22 02:37:37;;;;;;;15.07;10.18;;;6.40;90.40;;;;;;5099243;28;20046;-71
2024/02/22 02:40:05;;;;;;;15.00;10.50;;;6.50;90.30;;;;;;5103915;28;20058;-71
2024/02/22 02:42:32;;;;;;;12.73;9.98;;;6.40;90.50;;;;;;5100912;28;20036;-71
2024/02/22 02:44:59;;;;;;;14.63;9.85;;;6.30;90.40;;;;;;5102149;28;20090;-72
2024/02/22 02:47:26;;;;;;;14.73;9.98;;;6.30;90.50;;;;;;5084819;28;20478;-71
2024/02/22 02:49:54;;;;;;;13.10;9.55;;;6.40;90.20;;;;;;5095207;28;20475;-73
2024/02/22 02:52:21;;;;;;;12.27;9.45;;;6.40;90.20;;;;;;5101896;28;20467;-71
2024/02/22 02:54:48;;;;;;;11.35;8.73;;;6.40;90.10;;;;;;5094595;28;20040;-70
2024/02/22 02:57:15;;;;;;;11.45;9.40;;;6.40;90.10;;;;;;5097282;28;20031;-71
2024/02/22 02:59:44;;;;;;;11.90;9.65;;;6.40;90.10;;;;;;5101382;28;20113;-72
2024/02/22 03:02:11;;;;;;;11.75;9.48;;;6.40;90.30;;;;;;5098922;28;20047;-71
2024/02/22 03:04:40;;;;;;;13.50;10.07;;;6.50;90.10;;;;;;5099862;28;20051;-71
2024/02/22 03:07:08;;;;;;;13.02;9.73;;;6.50;90.10;;;;;;5100197;28;20036;-70
2024/02/22 03:09:35;;;;;;;14.65;10.38;;;6.40;90.20;;;;;;5097538;28;20047;-70
2024/02/22 03:12:03;;;;;;;12.10;9.05;;;6.40;90.20;;;;;;5099328;28;20068;-72
2024/02/22 03:14:30;;;;;;;13.77;9.82;;;6.40;90.20;;;;;;5100689;28;20046;-71
2024/02/22 03:16:57;;;;;;;14.70;10.10;;;6.30;90.40;;;;;;5096392;28;20043;-68
2024/02/22 03:19:25;;;;;;;17.55;10.88;;;6.30;90.40;;;;;;5098758;28;20540;-71
2024/02/22 03:21:52;;;;;;;14.52;11.30;;;6.10;90.80;;;;;;5100869;28;20028;-72
2024/02/22 03:24:20;;;;;;;15.18;10.15;;;6.20;90.80;;;;;;5093094;28;20040;-72
2024/02/22 03:26:48;;;;;;;13.88;9.80;;;6.20;90.90;;;;;;5098308;28;20044;-71
2024/02/22 03:29:15;;;;;;;14.15;11.13;;;6.30;90.60;;;;;;5097296;28;20400;-70
2024/02/22 03:31:43;;;;;;;14.25;10.15;;;6.40;90.40;;;;;;5095823;28;20342;-72
2024/02/22 03:34:11;;;;;;;12.88;10.50;;;6.20;90.20;;;;;;5096933;28;20043;-72
2024/02/22 03:36:41;;;;;;;14.82;10.15;;;6.10;90.70;;;;;;5099036;28;20055;-70
2024/02/22 03:39:11;;;;;;;13.73;10.70;;;6.20;90.50;;;;;;5099903;28;20469;-71
2024/02/22 03:41:38;;;;;;;19.83;11.55;;;5.80;90.80;;;;;;5101724;28;20039;-71
2024/02/22 03:44:06;;;;;;;13.68;10.80;;;5.80;91.40;;;;;;5098390;28;20058;-71
2024/02/22 03:46:33;;;;;;;14.45;11.07;;;5.90;91.40;;;;;;5097209;28;20035;-72
2024/02/22 03:49:01;;;;;;;17.02;11.02;;;6.00;91.20;;;;;;5098272;28;20045;-69
2024/02/22 03:51:28;;;;;;;14.30;11.27;;;6.10;90.90;;;;;;5084006;28;20124;-70
2024/02/22 03:53:55;;;;;;;13.15;10.38;;;6.10;90.80;;;;;;5101744;28;20042;-71
2024/02/22 03:56:23;;;;;;;13.60;10.90;;;6.00;91.00;;;;;;5100943;28;20135;-71
2024/02/22 03:58:51;;;;;;;14.85;10.88;;;6.20;90.80;;;;;;5093501;28;20084;-71
2024/02/22 04:01:18;;;;;;;13.48;10.25;;;6.20;90.50;;;;;;5093861;28;20077;-70
2024/02/22 04:03:46;;;;;;;13.43;10.90;;;6.10;90.30;;;;;;5093115;28;20061;-69
2024/02/22 04:06:14;;;;;;;15.65;11.25;;;6.10;90.50;;;;;;5099657;28;20055;-72
2024/02/22 04:08:41;;;;;;;15.30;10.88;;;6.10;90.60;;;;;;5100336;28;20520;-70
2024/02/22 04:11:08;;;;;;;15.48;11.38;;;6.10;90.70;;;;;;5100019;28;20086;-73
2024/02/22 04:13:40;;;;;;;14.80;10.98;;;5.60;91.10;;;;;;5100089;28;20446;-71
2024/02/22 04:16:24;;;;;;;14.00;10.38;;;5.70;91.70;;;;;;5093928;28;20436;-71
2024/02/22 04:18:51;;;;;;;18.38;11.10;;;5.90;91.30;;;;;;5083145;28;20513;-71
2024/02/22 04:21:19;;;;;;;13.73;10.30;;;5.90;91.10;;;;;;5079354;28;20130;-69
2024/02/22 04:23:46;;;;;;;11.93;10.32;;;5.80;91.00;;;;;;5094261;28;20040;-72
2024/02/22 04:26:14;;;;;;;15.23;10.38;;;5.90;91.20;;;;;;5100237;28;20055;-70
2024/02/22 04:28:42;;;;;;;14.38;10.55;;;6.00;90.90;;;;;;5099268;28;20433;-71
2024/02/22 04:31:10;;;;;;;13.82;10.40;;;6.00;90.70;;;;;;5098128;28;20048;-71
2024/02/22 04:33:37;;;;;;;13.70;10.20;;;6.00;90.60;;;;;;5100036;28;20040;-71
2024/02/22 04:36:21;;;;;;;18.10;10.38;;;5.80;90.80;;;;;;5090444;28;20478;-72
2024/02/22 04:38:49;;;;;;;14.02;11.35;;;5.60;91.30;;;;;;5088422;28;20042;-71
2024/02/22 04:41:22;;;;;;;16.58;11.27;;;5.70;91.40;;;;;;5080503;28;20154;-70
2024/02/22 04:44:07;;;;;;;13.70;10.57;;;5.60;91.30;;;;;;5101608;28;20031;-70
2024/02/22 04:46:37;;;;;;;14.70;10.93;;;5.50;91.30;;;;;;5101512;28;20495;-71
2024/02/22 04:49:05;;;;;;;14.90;10.48;;;5.50;91.80;;;;;;5099741;28;20372;-69
2024/02/22 04:51:33;;;;;;;17.08;11.07;;;5.60;91.80;;;;;;5103130;28;20252;-73
2024/02/22 04:54:02;;;;;;;16.77;10.90;;;5.50;91.30;;;;;;5083007;28;20116;-70
2024/02/22 04:56:29;;;;;;;13.05;9.82;;;5.50;91.40;;;;;;5097985;28;20051;-71
2024/02/22 04:58:57;;;;;;;18.30;11.35;;;5.20;91.90;;;;;;5101366;28;20043;-71
2024/02/22 05:01:28;;;;;;;17.85;12.05;;;5.10;91.80;;;;;;5104915;28;20047;-72
2024/02/22 05:03:56;;;;;;;22.50;11.50;;;5.20;91.90;;;;;;5094037;28;20039;-73
2024/02/22 05:06:24;;;;;;;17.05;12.45;;;5.20;91.60;;;;;;5085628;28;20483;-71
2024/02/22 05:08:51;;;;;;;15.38;11.68;;;5.10;91.70;;;;;;5093720;28;20043;-72
2024/02/22 05:11:19;;;;;;;15.07;10.70;;;5.10;91.90;;;;;;5101565;28;20154;-71
2024/02/22 05:13:49;;;;;;;14.10;11.32;;;5.20;91.70;;;;;;5102292;28;20051;-71
2024/02/22 05:16:16;;;;;;;18.55;11.30;;;5.10;91.60;;;;;;5083817;28;20048;-70
2024/02/22 05:18:43;;;;;;;14.20;11.02;;;5.00;91.40;;;;;;5102478;28;20107;-71
2024/02/22 05:21:11;;;;;;;18.75;11.73;;;5.00;91.70;;;;;;5102810;28;20064;-71
2024/02/22 05:23:38;;;;;;;16.77;10.52;;;5.10;91.90;;;;;;5101380;28;20036;-69
2024/02/22 05:26:06;;;;;;;17.38;11.27;;;5.10;91.70;;;;;;5101829;28;20044;-71
2024/02/22 05:28:33;;;;;;;22.75;12.40;;;5.20;91.40;;;;;;5101994;28;20040;-73
2024/02/22 05:31:03;;;;;;;18.15;11.52;;;5.20;91.40;;;;;;5102001;28;20058;-70
2024/02/22 05:33:30;;;;;;;16.05;11.15;;;5.10;91.40;;;;;;5102547;28;20031;-71
2024/02/22 05:35:57;;;;;;;14.88;11.32;;;5.10;91.40;;;;;;5099898;28;20032;-70
2024/02/22 05:38:24;;;;;;;15.35;11.43;;;5.10;91.30;;;;;;5103962;28;20058;-70
2024/02/22 05:40:52;;;;;;;16.08;11.35;;;5.20;91.70;;;;;;5098075;28;20394;-70
2024/02/22 05:43:19;;;;;;;15.63;11.15;;;5.30;91.40;;;;;;5101704;28;20453;-70
2024/02/22 05:45:46;;;;;;;16.65;12.02;;;5.20;91.10;;;;;;5094572;28;20055;-70
2024/02/22 05:48:14;;;;;;;15.50;11.60;;;5.10;91.40;;;;;;5098020;28;20044;-70
2024/02/22 05:50:41;;;;;;;17.50;12.38;;;5.10;91.30;;;;;;5082229;28;20052;-70
2024/02/22 05:53:10;;;;;;;22.15;11.25;;;5.00;91.60;;;;;;5084561;28;20043;-69
2024/02/22 05:55:38;;;;;;;20.60;11.60;;;5.20;91.60;;;;;;5097028;28;20051;-69
2024/02/22 05:58:05;;;;;;;16.10;12.15;;;5.20;91.40;;;;;;5101689;28;20069;-72
2024/02/22 06:00:33;;;;;;;18.75;11.68;;;5.30;91.40;;;;;;5080720;28;20067;-72
2024/02/22 06:03:00;;;;;;;16.00;11.57;;;5.40;91.20;;;;;;5103183;28;20114;-70
2024/02/22 06:05:28;;;;;;;19.00;11.65;;;5.30;91.10;;;;;;5081378;28;20039;-71
2024/02/22 06:07:55;;;;;;;16.02;12.13;;;5.30;91.20;;;;;;5104248;28;20047;-69
2024/02/22 06:10:24;;;;;;;17.40;11.43;;;5.50;91.30;;;;;;5088837;28;20475;-73
2024/02/22 06:12:52;;;;;;;16.35;11.93;;;5.60;91.10;;;;;;5084931;28;20035;-71
2024/02/22 06:15:19;;;;;;;19.33;12.55;;;5.50;90.80;;;;;;5100842;28;20440;-73
2024/02/22 06:17:46;;;;;;;80.55;42.83;;;5.30;91.70;;;;;;5098255;28;20044;-73
2024/02/22 06:20:14;;;;;;;81.75;44.60;;;5.70;91.90;;;;;;5091825;28;20078;-72
2024/02/22 06:22:42;;;;;;;63.88;35.15;;;6.20;91.60;;;;;;5097612;28;20136;-74
2024/02/22 06:25:09;;;;;;;61.70;36.53;;;6.50;90.50;;;;;;5099867;28;20433;-71
2024/02/22 06:27:42;;;;;;;89.85;53.13;;;6.60;90.00;;;;;;5096818;28;20028;-73
2024/02/22 06:30:10;;;;;;;92.38;50.80;;;6.80;89.20;;;;;;5098475;28;20050;-72
2024/02/22 06:32:40;;;;;;;42.15;25.05;;;6.70;87.90;;;;;;5098980;28;20430;-72
2024/02/22 06:35:09;;;;;;;22.70;15.32;;;6.80;87.60;;;;;;5097658;28;20044;-73
2024/02/22 06:37:36;;;;;;;15.23;11.90;;;6.40;87.70;;;;;;5078961;28;20039;-73
2024/02/22 06:40:07;;;;;;;17.77;11.38;;;5.90;88.80;;;;;;5082543;28;20543;-73
2024/02/22 06:42:35;;;;;;;15.95;11.55;;;5.60;91.00;;;;;;5097167;28;20040;-72
2024/02/22 06:45:03;;;;;;;16.70;10.95;;;5.80;90.40;;;;;;5097763;28;20114;-71
2024/02/22 06:47:30;;;;;;;18.55;11.82;;;5.60;90.70;;;;;;5097847;28;20151;-71
2024/02/22 06:49:58;;;;;;;17.27;11.32;;;5.50;90.80;;;;;;5098436;28;20055;-72
2024/02/22 06:52:25;;;;;;;18.30;12.48;;;5.50;91.20;;;;;;5095250;28;20039;-73
2024/02/22 06:54:52;;;;;;;17.95;11.40;;;5.60;91.30;;;;;;5094415;28;20027;-71
2024/02/22 06:57:20;;;;;;;17.27;10.50;;;6.00;90.70;;;;;;5094088;28;20059;-70
2024/02/22 06:59:47;;;;;;;17.67;11.95;;;6.30;90.00;;;;;;5099725;28;20039;-73
2024/02/22 07:02:15;;;;;;;18.92;11.40;;;6.50;89.20;;;;;;5098194;28;20042;-75
2024/02/22 07:04:43;;;;;;;84.28;40.63;;;6.60;89.00;;;;;;5098138;28;20036;-73
2024/02/22 07:07:12;;;;;;;92.07;49.08;;;6.80;89.00;;;;;;5098098;28;20075;-72
2024/02/22 07:09:40;;;;;;;37.95;22.00;;;7.10;90.10;;;;;;5097633;28;20365;-76
2024/02/22 07:12:08;;;;;;;25.17;18.27;;;7.20;87.90;;;;;;5102058;28;20050;-73
2024/02/22 07:14:35;;;;;;;33.15;17.45;;;6.90;88.20;;;;;;5097644;28;20036;-72
2024/02/22 07:17:03;;;;;;;25.23;16.85;;;6.60;88.90;;;;;;5097963;28;20415;-73
2024/02/22 07:19:30;;;;;;;26.20;17.05;;;6.30;89.70;;;;;;5101293;28;20115;-72
2024/02/22 07:21:58;;;;;;;33.30;18.05;;;6.30;89.90;;;;;;5102197;28;20380;-71
2024/02/22 07:24:26;;;;;;;26.33;16.13;;;6.10;90.40;;;;;;5103080;28;20050;-72
2024/02/22 07:26:53;;;;;;;28.23;18.67;;;6.40;90.40;;;;;;5099788;28;20039;-72
2024/02/22 07:29:20;;;;;;;30.15;18.95;;;6.30;90.20;;;;;;5099520;28;20042;-75
2024/02/22 07:31:47;;;;;;;29.50;18.35;;;6.60;90.10;;;;;;5101327;28;20495;-73
2024/02/22 07:34:14;;;;;;;35.50;17.92;;;6.70;89.60;;;;;;5100435;28;20067;-72
2024/02/22 07:36:42;;;;;;;34.05;17.48;;;6.80;88.90;;;;;;5097268;28;20043;-71
2024/02/22 07:39:09;;;;;;;29.70;17.92;;;7.00;88.40;;;;;;5098799;28;20051;-72
2024/02/22 07:41:36;;;;;;;29.65;18.45;;;7.10;87.90;;;;;;5100451;28;20047;-72
2024/02/22 07:44:04;;;;;;;31.38;18.10;;;7.20;87.50;;;;;;5080962;28;20576;-74
2024/02/22 07:46:36;;;;;;;27.48;16.35;;;7.30;86.60;;;;;;5100957;28;20482;-74
2024/02/22 07:49:04;;;;;;;30.83;17.83;;;7.20;87.10;;;;;;5099120;28;20133;-73
2024/02/22 07:51:32;;;;;;;29.85;16.95;;;7.50;86.80;;;;;;5097558;28;20137;-73
2024/02/22 07:54:12;;;;;;;31.95;17.13;;;7.70;86.20;;;;;;5095853;28;20040;-70
2024/02/22 07:56:39;;;;;;;26.90;17.27;;;7.90;85.60;;;;;;5097934;28;20071;-72
2024/02/22 07:59:08;;;;;;;26.98;16.98;;;8.20;85.40;;;;;;5100405;28;20035;-71
2024/02/22 08:01:40;;;;;;;31.63;17.15;;;8.40;84.50;;;;;;5099832;28;20076;-70
2024/02/22 08:04:08;;;;;;;27.17;18.10;;;8.60;83.90;;;;;;5096622;28;20551;-72
2024/02/22 08:06:35;;;;;;;27.98;17.95;;;8.70;83.40;;;;;;5100503;28;20385;-72
2024/02/22 08:09:03;;;;;;;29.40;17.83;;;8.70;82.90;;;;;;5101079;28;20448;-74
2024/02/22 08:11:31;;;;;;;27.10;16.60;;;8.70;83.00;;;;;;5100217;28;20043;-74
2024/02/22 08:13:59;;;;;;;28.25;16.92;;;8.80;82.70;;;;;;5105847;28;20392;-73
2024/02/22 08:16:26;;;;;;;24.63;17.25;;;8.90;82.40;;;;;;5097687;28;20047;-73
2024/02/22 08:18:54;;;;;;;27.13;17.52;;;9.00;82.20;;;;;;5102275;28;20050;-74
2024/02/22 08:21:21;;;;;;;26.17;17.90;;;9.10;82.10;;;;;;5105140;27;20042;-74
2024/02/22 08:23:55;;;;;;;30.55;17.73;;;9.30;81.50;;;;;;5102497;28;20072;-73
2024/02/22 08:26:23;;;;;;;28.52;17.50;;;9.40;81.60;;;;;;5103746;27;20043;-72
2024/02/22 08:28:50;;;;;;;24.73;15.73;;;9.40;81.30;;;;;;5105307;28;20043;-75
2024/02/22 08:31:17;;;;;;;24.38;16.48;;;9.50;81.20;;;;;;5101659;27;20032;-72
2024/02/22 08:33:47;;;;;;;22.77;15.93;;;9.40;80.70;;;;;;5103473;28;20040;-73
2024/02/22 08:36:16;;;;;;;26.65;16.92;;;9.40;80.70;;;;;;5101604;28;20046;-72
2024/02/22 08:38:43;;;;;;;25.58;15.63;;;9.40;80.90;;;;;;5102671;28;20084;-70
2024/02/22 08:41:10;;;;;;;21.92;14.70;;;9.70;80.40;;;;;;5106186;28;20050;-72
2024/02/22 08:43:38;;;;;;;25.35;15.02;;;9.70;80.50;;;;;;5099725;28;20040;-72
2024/02/22 08:46:05;;;;;;;26.52;15.27;;;10.00;79.80;;;;;;5101812;28;20487;-75
2024/02/22 08:48:33;;;;;;;27.45;15.40;;;10.30;79.40;;;;;;5104703;28;20036;-76
2024/02/22 08:51:00;;;;;;;24.23;15.52;;;10.30;78.10;;;;;;5090447;28;20044;-74
2024/02/22 08:53:27;;;;;;;18.92;14.02;;;10.50;78.40;;;;;;5099608;28;20109;-73
2024/02/22 08:55:55;;;;;;;23.60;15.07;;;10.40;78.30;;;;;;5097061;28;20040;-75
2024/02/22 08:58:22;;;;;;;23.73;14.48;;;10.40;78.10;;;;;;5101033;28;20040;-71
2024/02/22 09:00:49;;;;;;;24.20;14.57;;;10.50;77.80;;;;;;5088120;28;20044;-73
2024/02/22 09:03:16;;;;;;;27.95;16.00;;;10.60;77.50;;;;;;5094003;28;20039;-73
2024/02/22 09:05:45;;;;;;;23.73;15.95;;;10.50;78.30;;;;;;5099363;28;20044;-71
2024/02/22 09:08:13;;;;;;;28.20;16.38;;;11.10;79.10;;;;;;5095966;28;20039;-71
2024/02/22 09:10:40;;;;;;;26.00;15.63;;;11.50;76.50;;;;;;5088464;28;20059;-72
2024/02/22 09:13:08;;;;;;;24.35;15.15;;;11.90;77.50;;;;;;5095598;28;20055;-70
2024/02/22 09:15:35;;;;;;;25.33;14.25;;;12.60;75.60;;;;;;5091770;28;20040;-74
2024/02/22 09:18:02;;;;;;;21.73;13.75;;;12.80;73.00;;;;;;5096406;28;20048;-73
2024/02/22 09:20:30;;;;;;;25.25;13.68;;;12.50;74.10;;;;;;5105952;28;20031;-71
2024/02/22 09:22:57;;;;;;;18.08;12.55;;;12.70;74.30;;;;;;5099550;28;20062;-73
2024/02/22 09:25:25;;;;;;;17.52;11.85;;;13.00;72.50;;;;;;5102716;28;20122;-70
2024/02/22 09:27:52;;;;;;;23.58;13.95;;;12.70;73.40;;;;;;5078959;28;20063;-74
2024/02/22 09:30:19;;;;;;;18.52;12.32;;;12.80;72.60;;;;;;5086457;28;20093;-72
2024/02/22 09:32:47;;;;;;;16.55;10.57;;;12.80;73.50;;;;;;5092774;28;20047;-73
2024/02/22 09:35:15;;;;;;;13.63;9.73;;;13.10;71.40;;;;;;5098677;28;20114;-73
2024/02/22 09:37:43;;;;;;;15.00;10.02;;;12.90;71.90;;;;;;5097539;28;20067;-73
2024/02/22 09:40:12;;;;;;;13.15;9.40;;;12.80;71.60;;;;;;5097268;28;20457;-72
2024/02/22 09:42:40;;;;;;;15.95;9.57;;;12.70;71.30;;;;;;5097119;28;20090;-73
2024/02/22 09:45:08;;;;;;;15.38;10.27;;;12.90;72.00;;;;;;5102996;28;20085;-74
2024/02/22 09:47:36;;;;;;;10.40;7.53;;;13.10;71.40;;;;;;5096266;28;20047;-70
2024/02/22 09:50:09;;;;;;;11.98;7.55;;;13.00;70.40;;;;;;5102499;28;20055;-71
2024/02/22 09:52:38;;;;;;;12.68;8.05;;;13.30;70.50;;;;;;5088004;28;20964;-72
2024/02/22 09:55:06;;;;;;;14.73;8.10;;;13.20;69.80;;;;;;5086812;28;20040;-71
2024/02/22 09:57:33;;;;;;;9.57;7.45;;;13.00;71.10;;;;;;5078679;28;20041;-69
2024/02/22 10:00:01;;;;;;;12.60;8.20;;;13.10;71.80;;;;;;5094049;28;20064;-71
2024/02/22 10:02:28;;;;;;;12.90;8.75;;;13.20;70.50;;;;;;5101322;28;20036;-70
2024/02/22 10:04:57;;;;;;;13.85;8.90;;;13.40;69.90;;;;;;5105140;28;20055;-73
2024/02/22 10:07:39;;;;;;;11.70;8.27;;;13.20;70.00;;;;;;5094990;28;20135;-71
2024/02/22 10:10:07;;;;;;;14.30;9.20;;;13.40;70.10;;;;;;5099656;28;20040;-70
2024/02/22 10:12:35;;;;;;;14.90;8.85;;;13.80;69.40;;;;;;5096583;28;20040;-76
2024/02/22 10:15:11;;;;;;;12.80;9.35;;;13.90;69.50;;;;;;5099147;28;20064;-75
2024/02/22 10:17:38;;;;;;;21.20;9.88;;;14.20;70.40;;;;;;5098902;28;20063;-72
2024/02/22 10:20:09;;;;;;;12.38;8.90;;;14.70;69.30;;;;;;5101933;28;20044;-72
2024/02/22 10:22:38;;;;;;;14.07;8.90;;;14.70;67.20;;;;;;5096596;28;20103;-72
2024/02/22 10:25:08;;;;;;;11.65;8.75;;;14.50;67.10;;;;;;5099632;28;20039;-74
2024/02/22 10:27:36;;;;;;;16.70;9.15;;;14.50;67.50;;;;;;5103048;27;20039;-70
2024/02/22 10:30:09;;;;;;;13.93;8.38;;;14.40;68.00;;;;;;5086390;28;20039;-70
2024/02/22 10:32:41;;;;;;;13.27;8.70;;;14.90;67.60;;;;;;5084412;28;20042;-72
2024/02/22 10:35:12;;;;;;;14.50;8.73;;;15.00;66.10;;;;;;5102623;28;20039;-72
2024/02/22 10:37:40;;;;;;;10.70;7.80;;;14.90;65.50;;;;;;5099142;28;20032;-72
2024/02/22 10:40:11;;;;;;;12.15;7.63;;;14.70;66.10;;;;;;5085288;28;20295;-71
2024/02/22 10:42:39;;;;;;;12.68;8.02;;;15.30;65.40;;;;;;5100815;28;20390;-74
2024/02/22 10:45:08;;;;;;;13.68;8.90;;;15.80;65.10;;;;;;5098053;28;20100;-71
2024/02/22 10:47:39;;;;;;;13.52;8.13;;;15.80;64.00;;;;;;5103476;28;20059;-74
2024/02/22 10:50:07;;;;;;;13.90;6.97;;;16.00;63.30;;;;;;5079124;28;20449;-70
2024/02/22 10:52:40;;;;;;;7.50;5.90;;;16.00;62.80;;;;;;5100189;28;20043;-73
2024/02/22 10:55:15;;;;;;;7.93;6.28;;;16.20;63.10;;;;;;5098342;28;20135;-70
2024/02/22 10:57:52;;;;;;;9.45;6.47;;;16.50;61.40;;;;;;5097526;28;20032;-71
2024/02/22 11:00:20;;;;;;;8.98;6.20;;;17.00;61.20;;;;;;5100338;28;20646;-73
2024/02/22 11:02:49;;;;;;;10.77;6.65;;;17.50;60.60;;;;;;5095418;28;20036;-76
2024/02/22 11:05:17;;;;;;;10.70;7.00;;;17.20;59.30;;;;;;5097413;28;20047;-73
2024/02/22 11:07:49;;;;;;;9.65;6.57;;;17.10;59.40;;;;;;5094967;28;20032;-75
2024/02/22 11:10:19;;;;;;;9.65;6.43;;;20.70;56.80;;;;;;5091650;28;20036;-77
2024/02/22 11:13:04;;;;;;;9.32;6.15;;;24.80;49.70;;;;;;5084482;28;20115;-78
2024/02/22 11:15:35;;;;;;;11.77;6.45;;;25.90;47.20;;;;;;5089138;28;20035;-75
2024/02/22 11:18:03;;;;;;;8.50;6.03;;;26.50;46.10;;;;;;5092653;28;20043;-78
2024/02/22 11:20:33;;;;;;;10.80;6.30;;;26.70;45.80;;;;;;5100159;28;20035;-70
2024/02/22 11:23:14;;;;;;;9.95;6.13;;;28.30;44.30;;;;;;5091479;28;20074;-73
2024/02/22 11:25:42;;;;;;;7.95;5.68;;;27.60;43.80;;;;;;5100061;28;20086;-74
2024/02/22 11:28:11;;;;;;;9.00;6.30;;;25.80;42.90;;;;;;5102762;28;20477;-74
2024/02/22 11:30:45;;;;;;;7.85;5.55;;;21.60;49.10;;;;;;5099162;28;20120;-75
2024/02/22 11:33:31;;;;;;;7.30;4.93;;;18.90;53.70;;;;;;5100373;28;20116;-73
2024/02/22 11:36:00;;;;;;;9.20;5.72;;;17.80;55.80;;;;;;5098832;28;20376;-74
2024/02/22 11:38:27;;;;;;;9.60;5.95;;;17.70;55.80;;;;;;5099592;28;20043;-75
2024/02/22 11:41:03;;;;;;;8.57;6.32;;;18.00;55.40;;;;;;5098017;28;20415;-76
2024/02/22 11:43:32;;;;;;;7.90;5.82;;;16.80;55.50;;;;;;5098168;28;20046;-73
2024/02/22 11:46:00;;;;;;;10.10;6.10;;;17.30;55.60;;;;;;5095518;28;20400;-75
2024/02/22 11:48:28;;;;;;;9.15;6.32;;;17.70;55.30;;;;;;5094396;28;20058;-73
2024/02/22 11:50:56;;;;;;;8.18;5.90;;;18.00;55.30;;;;;;5096919;28;20046;-76
2024/02/22 11:53:24;;;;;;;9.88;7.03;;;18.30;55.00;;;;;;5102282;28;20097;-74
2024/02/22 11:55:51;;;;;;;14.55;10.63;;;17.90;55.10;;;;;;5102114;28;20403;-72
2024/02/22 11:58:20;;;;;;;15.27;11.32;;;18.30;56.10;;;;;;5103989;28;20039;-76
2024/02/22 12:00:48;;;;;;;13.43;9.20;;;18.50;55.30;;;;;;5099387;28;20040;-73
2024/02/22 12:03:16;;;;;;;13.43;8.65;;;18.60;54.50;;;;;;5100723;28;20050;-76
2024/02/22 12:05:43;;;;;;;12.65;7.95;;;18.70;53.30;;;;;;5094177;28;20115;-74
2024/02/22 12:08:12;;;;;;;10.57;6.35;;;19.10;53.50;;;;;;5102161;28;20142;-76
2024/02/22 12:10:39;;;;;;;11.65;7.10;;;19.30;53.00;;;;;;5094228;28;20036;-78
2024/02/22 12:13:06;;;;;;;10.10;6.95;;;19.80;53.20;;;;;;5093270;28;20094;-71
2024/02/22 12:15:34;;;;;;;8.57;5.40;;;19.70;52.80;;;;;;5090492;28;20028;-72
2024/02/22 12:18:01;;;;;;;8.13;5.55;;;19.60;52.90;;;;;;5099787;28;20071;-77
2024/02/22 12:20:29;;;;;;;9.18;6.10;;;20.00;53.00;;;;;;5090229;28;20036;-74
2024/02/22 12:22:56;;;;;;;9.93;5.93;;;19.70;53.10;;;;;;5092189;28;20520;-72
2024/02/22 12:25:23;;;;;;;7.55;5.05;;;20.80;51.90;;;;;;5100190;28;20043;-71
2024/02/22 12:27:52;;;;;;;7.78;5.10;;;21.40;50.80;;;;;;5098462;28;20074;-71
2024/02/22 12:30:21;;;;;;;9.02;5.53;;;23.70;49.50;;;;;;5097047;28;20032;-74
2024/02/22 12:32:52;;;;;;;8.38;5.70;;;26.60;45.70;;;;;;5098092;28;20115;-73
2024/02/22 12:35:21;;;;;;;8.48;5.70;;;28.60;43.40;;;;;;5101650;28;20039;-78
2024/02/22 12:37:49;;;;;;;7.65;5.50;;;29.10;43.10;;;;;;5098581;28;20040;-75
2024/02/22 12:40:17;;;;;;;12.63;5.85;;;28.60;42.80;;;;;;5094669;28;20119;-75
2024/02/22 12:42:54;;;;;;;8.27;5.32;;;29.00;42.40;;;;;;5095971;28;20148;-73
2024/02/22 12:45:22;;;;;;;7.90;5.07;;;27.80;42.10;;;;;;5100436;28;20075;-71
2024/02/22 12:47:50;;;;;;;7.85;5.10;;;28.80;42.10;;;;;;5096447;28;20051;-70